Time;durP1;ratioP1;P1;durP2;ratioP2;P2;SDS_P1;SDS_P2;PMS_P1;PMS_P2;Temp;Humidity;BMP_temperature;BMP_pressure;BME280_temperature;BME280_humidity;BME280_pressure;Samples;Min_cycle;Max_cycle;Signal;HPM_P1;HPM_P2
2021/12/16 00:09:03;;;;;;;19.58;9.68;;;7.60;99.90;;;;;;5009713;28;20586;-63
2021/12/16 00:33:40;;;;;;;29.13;10.10;;;7.70;99.90;;;;;;4977290;28;20133;-62
2021/12/16 00:36:04;;;;;;;27.27;10.70;;;7.70;99.90;;;;;;4978311;28;20038;-65
2021/12/16 00:38:30;;;;;;;23.27;10.48;;;7.70;99.90;;;;;;4971866;28;20044;-63
2021/12/16 00:40:56;;;;;;;22.70;11.63;;;7.70;99.90;;;;;;4976595;28;20034;-63
2021/12/16 00:43:32;;;;;;;24.50;10.68;;;7.70;99.90;;;;;;4957764;28;20254;-65
2021/12/16 00:48:48;;;;;;;22.55;11.43;;;7.70;99.90;;;;;;4987954;28;20040;-63
2021/12/16 00:54:15;;;;;;;24.98;11.77;;;7.70;99.90;;;;;;4995514;28;20046;-63
2021/12/16 00:56:54;;;;;;;19.23;9.82;;;7.70;99.90;;;;;;4974769;28;20851;-63
2021/12/16 00:59:21;;;;;;;20.73;10.68;;;7.80;99.90;;;;;;4975580;28;20042;-64
2021/12/16 01:34:43;;;;;;;22.33;9.10;;;7.90;99.90;;;;;;4982335;28;19922;-64
2021/12/16 01:50:08;;;;;;;20.98;8.48;;;7.90;99.90;;;;;;4997386;28;20046;-64
2021/12/16 01:55:29;;;;;;;19.15;7.15;;;7.90;99.90;;;;;;5000403;28;20049;-63
2021/12/16 01:58:09;;;;;;;18.50;7.57;;;7.90;99.90;;;;;;4974269;28;20049;-63
2021/12/16 02:00:56;;;;;;;16.02;7.03;;;7.90;99.90;;;;;;4984389;28;20107;-63
2021/12/16 02:03:37;;;;;;;23.10;8.80;;;7.90;99.90;;;;;;4996935;28;20149;-64
2021/12/16 02:06:21;;;;;;;19.20;8.35;;;7.90;99.90;;;;;;4995821;28;20038;-63
2021/12/16 02:08:48;;;;;;;23.35;9.00;;;7.90;99.90;;;;;;4978146;28;21040;-64
2021/12/16 02:11:22;;;;;;;22.77;9.13;;;7.90;99.90;;;;;;4984010;28;20100;-63
2021/12/16 02:33:34;;;;;;;18.98;7.10;;;7.70;99.90;;;;;;4983594;28;20128;-63
2021/12/16 02:36:13;;;;;;;20.42;7.35;;;7.80;99.90;;;;;;4997881;28;20254;-63
2021/12/16 02:38:39;;;;;;;18.85;7.88;;;7.70;99.90;;;;;;5000489;28;20137;-63
2021/12/16 02:41:04;;;;;;;20.98;8.63;;;7.60;99.90;;;;;;4979922;28;20408;-63
2021/12/16 02:48:41;;;;;;;22.92;8.73;;;7.60;99.90;;;;;;4974012;28;20266;-66
2021/12/16 02:51:22;;;;;;;16.17;7.68;;;7.50;99.90;;;;;;4992826;28;20124;-64
2021/12/16 02:53:52;;;;;;;21.98;8.90;;;7.50;99.90;;;;;;4999772;28;20037;-64
2021/12/16 02:56:18;;;;;;;16.55;7.10;;;7.40;99.90;;;;;;4979121;28;21513;-65
2021/12/16 02:58:50;;;;;;;18.83;8.20;;;7.40;99.90;;;;;;4960783;28;20030;-63
2021/12/16 03:01:34;;;;;;;18.80;8.80;;;7.30;99.90;;;;;;4994287;28;20164;-64
2021/12/16 03:04:02;;;;;;;20.63;9.07;;;7.30;99.90;;;;;;4999988;28;20042;-64
2021/12/16 03:06:30;;;;;;;17.02;7.35;;;7.30;99.90;;;;;;4983068;28;20370;-65
2021/12/16 03:08:58;;;;;;;22.65;8.65;;;7.20;99.90;;;;;;4995132;28;20065;-64
2021/12/16 03:21:42;;;;;;;21.92;7.70;;;7.10;99.90;;;;;;4995283;28;20052;-65
2021/12/16 03:29:26;;;;;;;23.33;9.30;;;7.00;99.90;;;;;;4999137;28;20104;-65
2021/12/16 03:37:26;;;;;;;22.27;7.97;;;6.90;99.90;;;;;;4981564;28;20046;-65
2021/12/16 03:39:56;;;;;;;28.38;8.70;;;6.90;99.90;;;;;;4982180;28;20042;-65
2021/12/16 03:42:31;;;;;;;15.85;6.90;;;6.90;99.90;;;;;;4995306;28;21533;-64
2021/12/16 03:45:05;;;;;;;25.48;8.70;;;6.90;99.90;;;;;;4986742;28;20421;-64
2021/12/16 03:47:45;;;;;;;21.58;8.32;;;6.90;99.90;;;;;;4999632;28;20034;-64
2021/12/16 03:50:16;;;;;;;23.77;8.73;;;6.80;99.90;;;;;;4981908;28;20176;-64
2021/12/16 03:52:43;;;;;;;30.48;8.60;;;6.90;99.90;;;;;;4992715;28;20148;-64
2021/12/16 03:55:10;;;;;;;21.63;8.20;;;6.80;99.90;;;;;;4964730;28;20456;-65
2021/12/16 03:57:36;;;;;;;22.45;8.77;;;6.80;99.90;;;;;;4979264;28;20053;-64
2021/12/16 04:00:11;;;;;;;18.55;7.88;;;6.70;99.90;;;;;;4958676;28;20048;-64
2021/12/16 04:02:38;;;;;;;17.65;9.00;;;6.70;99.90;;;;;;4990431;28;20046;-65
2021/12/16 04:05:07;;;;;;;24.40;9.07;;;6.70;99.90;;;;;;4963863;28;20057;-64
2021/12/16 04:07:37;;;;;;;20.15;8.25;;;6.70;99.90;;;;;;4978683;28;20097;-65
2021/12/16 04:10:08;;;;;;;16.13;8.00;;;6.70;99.90;;;;;;4993970;28;20041;-64
2021/12/16 04:12:35;;;;;;;22.77;8.70;;;6.70;99.90;;;;;;4994386;28;20492;-64
2021/12/16 04:15:03;;;;;;;15.52;7.95;;;6.70;99.90;;;;;;4983589;28;20052;-64
2021/12/16 04:17:30;;;;;;;19.55;7.50;;;6.60;99.90;;;;;;4997562;28;20080;-64
2021/12/16 04:19:58;;;;;;;19.77;8.38;;;6.60;99.90;;;;;;4998701;28;20045;-65
2021/12/16 04:22:33;;;;;;;23.40;9.15;;;6.60;99.90;;;;;;4963435;28;20077;-64
2021/12/16 04:25:04;;;;;;;23.70;7.32;;;6.60;99.90;;;;;;4980136;28;20049;-64
2021/12/16 04:27:31;;;;;;;21.35;8.13;;;6.60;99.90;;;;;;4993706;28;20056;-65
2021/12/16 04:29:57;;;;;;;22.05;8.57;;;6.60;99.90;;;;;;4979860;28;20148;-65
2021/12/16 04:32:24;;;;;;;14.07;7.32;;;6.70;99.90;;;;;;4991907;28;20262;-66
2021/12/16 04:34:49;;;;;;;25.30;8.25;;;6.60;99.90;;;;;;4984825;28;20142;-65
2021/12/16 04:37:15;;;;;;;15.57;7.57;;;6.60;99.90;;;;;;4997636;28;20129;-65
2021/12/16 04:39:43;;;;;;;32.58;9.68;;;6.70;99.90;;;;;;4993082;28;20356;-64
2021/12/16 04:42:11;;;;;;;16.13;7.65;;;6.60;99.90;;;;;;4996808;28;20400;-64
2021/12/16 04:44:39;;;;;;;20.30;8.27;;;6.60;99.90;;;;;;4996592;28;20061;-64
2021/12/16 04:47:05;;;;;;;22.40;9.23;;;6.60;99.90;;;;;;4982795;28;20054;-65
2021/12/16 04:49:32;;;;;;;23.85;9.20;;;6.60;99.90;;;;;;4998855;28;20049;-65
2021/12/16 04:52:04;;;;;;;25.27;9.40;;;6.60;99.90;;;;;;4980181;28;20034;-65
2021/12/16 04:54:30;;;;;;;16.00;7.53;;;6.60;99.90;;;;;;4993542;28;20038;-64
2021/12/16 04:56:58;;;;;;;26.88;8.45;;;6.60;99.90;;;;;;4995683;28;20068;-65
2021/12/16 04:59:24;;;;;;;21.35;8.20;;;6.60;99.90;;;;;;4964255;28;20046;-65
2021/12/16 05:01:57;;;;;;;16.98;6.45;;;6.60;99.90;;;;;;4963073;28;20038;-64
2021/12/16 05:04:24;;;;;;;28.77;9.63;;;6.60;99.90;;;;;;4974161;28;20056;-63
2021/12/16 05:06:51;;;;;;;28.38;11.00;;;6.50;99.90;;;;;;4980843;28;20168;-64
2021/12/16 05:09:47;;;;;;;27.27;10.07;;;6.50;99.90;;;;;;5000252;28;20388;-64
2021/12/16 05:12:05;;;;;;;22.45;9.30;;;6.60;99.90;;;;;;4976171;28;20045;-63
2021/12/16 05:14:31;;;;;;;27.10;9.35;;;6.50;99.90;;;;;;4991124;28;20038;-64
2021/12/16 05:16:57;;;;;;;20.08;9.30;;;6.50;99.90;;;;;;4978208;28;20752;-65
2021/12/16 05:19:23;;;;;;;23.85;10.25;;;6.60;99.90;;;;;;4983616;28;20424;-65
2021/12/16 05:24:13;;;;;;;22.90;9.63;;;6.50;99.90;;;;;;4998235;28;20045;-63
2021/12/16 05:24:38;;;;;;;21.02;9.90;;;6.40;99.90;;;;;;4978594;28;20405;-65
2021/12/16 05:27:07;;;;;;;19.20;9.02;;;6.40;99.90;;;;;;4993687;28;20045;-65
2021/12/16 05:29:33;;;;;;;18.17;8.60;;;6.40;99.90;;;;;;4988098;28;20544;-64
2021/12/16 05:32:00;;;;;;;27.27;9.98;;;6.40;99.90;;;;;;4976214;28;20053;-64
2021/12/16 05:34:26;;;;;;;17.92;8.07;;;6.40;99.90;;;;;;4978270;28;20048;-64
2021/12/16 05:36:53;;;;;;;20.52;8.93;;;6.30;99.90;;;;;;4977072;28;20049;-65
2021/12/16 05:39:19;;;;;;;18.77;8.55;;;6.30;99.90;;;;;;4956314;28;20030;-63
2021/12/16 05:41:46;;;;;;;18.10;7.47;;;6.30;99.90;;;;;;4992549;28;20050;-65
2021/12/16 05:44:12;;;;;;;17.05;8.02;;;6.30;99.90;;;;;;4993418;28;20074;-64
2021/12/16 05:46:39;;;;;;;13.85;7.22;;;6.30;99.90;;;;;;4995975;28;20065;-65
2021/12/16 05:49:08;;;;;;;20.30;8.95;;;6.30;99.90;;;;;;4964628;28;20048;-65
2021/12/16 05:51:37;;;;;;;17.98;7.22;;;6.20;99.90;;;;;;4957695;28;20378;-65
2021/12/16 05:54:05;;;;;;;18.52;8.85;;;6.20;99.90;;;;;;4974890;28;20404;-65
2021/12/16 05:56:31;;;;;;;23.48;9.50;;;6.20;99.90;;;;;;4963055;28;20120;-65
2021/12/16 05:58:57;;;;;;;21.27;9.38;;;6.20;99.90;;;;;;4980997;28;20137;-65
2021/12/16 06:01:28;;;;;;;19.15;8.80;;;6.20;99.90;;;;;;4974311;28;20528;-65
2021/12/16 06:03:54;;;;;;;21.10;9.77;;;6.20;99.90;;;;;;4974309;28;20050;-65
2021/12/16 06:06:21;;;;;;;19.55;8.50;;;6.20;99.90;;;;;;4994791;28;20084;-65
2021/12/16 06:08:48;;;;;;;15.07;8.80;;;6.10;99.90;;;;;;4978830;28;20038;-65
2021/12/16 06:11:24;;;;;;;16.25;9.68;;;6.10;99.90;;;;;;4994418;28;20381;-65
2021/12/16 06:27:29;;;;;;;16.50;8.57;;;6.20;99.90;;;;;;4992364;28;20429;-65
2021/12/16 06:29:55;;;;;;;21.23;10.02;;;6.20;99.90;;;;;;4967027;28;20046;-65
2021/12/16 06:32:22;;;;;;;20.25;9.13;;;6.20;99.90;;;;;;4973648;28;20038;-65
2021/12/16 06:34:48;;;;;;;20.75;9.02;;;6.20;99.90;;;;;;5012372;28;20030;-64
2021/12/16 06:37:15;;;;;;;20.83;10.88;;;6.20;99.90;;;;;;4984604;28;20065;-65
2021/12/16 06:39:41;;;;;;;23.42;10.55;;;6.20;99.90;;;;;;4969680;28;21043;-65
2021/12/16 06:42:09;;;;;;;19.83;10.75;;;6.20;99.90;;;;;;4970109;28;20084;-65
2021/12/16 06:44:42;;;;;;;22.63;10.55;;;6.20;99.90;;;;;;4999574;28;20568;-64
2021/12/16 06:49:45;;;;;;;18.48;10.52;;;6.20;99.90;;;;;;5022977;28;20044;-59
2021/12/16 06:52:14;;;;;;;29.08;9.80;;;6.20;99.90;;;;;;5015300;28;20578;-60
2021/12/16 06:55:33;;;;;;;17.77;8.95;;;6.20;99.90;;;;;;5023827;28;20071;-58
2021/12/16 07:00:15;;;;;;;18.95;8.88;;;6.10;99.90;;;;;;5017773;28;20499;-58
2021/12/16 07:05:15;;;;;;;24.60;10.82;;;6.10;99.90;;;;;;5001950;28;20500;-57
2021/12/16 07:07:42;;;;;;;25.95;11.65;;;6.10;99.90;;;;;;4996099;28;20057;-60
2021/12/16 07:10:11;;;;;;;28.15;11.40;;;6.00;99.90;;;;;;5015140;28;20361;-60
2021/12/16 07:12:39;;;;;;;18.10;10.35;;;6.00;99.90;;;;;;5009449;28;20045;-59
2021/12/16 07:15:09;;;;;;;26.05;12.27;;;6.10;99.90;;;;;;5001552;28;20047;-60
2021/12/16 07:17:36;;;;;;;42.00;12.65;;;6.10;99.90;;;;;;4993803;28;20599;-57
2021/12/16 07:20:04;;;;;;;146.07;14.23;;;6.00;99.90;;;;;;5013090;28;20049;-59
2021/12/16 07:22:30;;;;;;;139.68;17.85;;;6.00;99.90;;;;;;5015699;28;20103;-59
2021/12/16 07:24:55;;;;;;;40.10;9.40;;;5.90;99.90;;;;;;5016626;28;20578;-60
2021/12/16 07:27:21;;;;;;;46.72;12.40;;;5.90;99.90;;;;;;5004395;28;20442;-57
2021/12/16 07:29:47;;;;;;;19.27;9.80;;;5.90;99.90;;;;;;5009941;28;20686;-57
2021/12/16 07:32:12;;;;;;;27.33;10.38;;;5.80;99.90;;;;;;4999931;28;20041;-58
2021/12/16 07:34:38;;;;;;;25.50;8.25;;;5.90;99.90;;;;;;5014491;28;20523;-57
2021/12/16 07:37:06;;;;;;;79.45;14.77;;;5.80;99.90;;;;;;5015051;28;20044;-59
2021/12/16 07:39:38;;;;;;;54.78;13.30;;;5.80;99.90;;;;;;4997830;28;20245;-59
2021/12/16 07:42:07;;;;;;;154.10;20.00;;;5.80;99.90;;;;;;5010530;28;20048;-60
2021/12/16 07:44:34;;;;;;;55.35;11.45;;;5.80;99.90;;;;;;5022177;28;20748;-57
2021/12/16 07:47:04;;;;;;;107.70;14.40;;;5.80;99.90;;;;;;5014309;28;20427;-59
2021/12/16 07:49:35;;;;;;;50.42;10.40;;;5.80;99.90;;;;;;5008754;28;20130;-59
2021/12/16 07:52:04;;;;;;;37.08;10.63;;;5.80;99.90;;;;;;5008933;28;20054;-59
2021/12/16 07:54:30;;;;;;;33.35;9.80;;;5.80;99.90;;;;;;5012826;28;20472;-56
2021/12/16 07:56:58;;;;;;;67.90;11.95;;;5.80;99.90;;;;;;5008363;28;20049;-59
2021/12/16 07:59:26;;;;;;;85.22;13.73;;;5.80;99.90;;;;;;4994252;28;20415;-57
2021/12/16 08:01:53;;;;;;;89.53;13.82;;;5.90;99.90;;;;;;5023902;28;20442;-58
2021/12/16 08:04:21;;;;;;;81.22;13.07;;;5.90;99.90;;;;;;5028234;28;20049;-58
2021/12/16 08:06:50;;;;;;;162.13;20.05;;;5.90;99.90;;;;;;5002074;28;20123;-59
2021/12/16 08:09:17;;;;;;;73.93;13.52;;;5.90;99.90;;;;;;5028757;28;20420;-59
2021/12/16 08:11:43;;;;;;;68.22;12.90;;;5.90;99.90;;;;;;5015776;28;20059;-56
2021/12/16 08:14:09;;;;;;;56.17;12.50;;;5.90;99.90;;;;;;5016036;28;20033;-59
2021/12/16 08:16:36;;;;;;;113.65;16.95;;;5.90;99.90;;;;;;5006101;28;20041;-60
2021/12/16 08:19:03;;;;;;;76.55;15.55;;;6.00;99.90;;;;;;5034111;28;20079;-59
2021/12/16 08:21:29;;;;;;;27.70;11.65;;;6.00;99.90;;;;;;5010337;28;20080;-57
2021/12/16 08:23:58;;;;;;;90.38;17.92;;;6.00;99.90;;;;;;4993386;28;20072;-60
2021/12/16 08:26:25;;;;;;;61.03;12.60;;;6.10;99.90;;;;;;5023550;28;20029;-60
2021/12/16 08:28:50;;;;;;;32.00;12.57;;;6.00;99.90;;;;;;5002093;28;20041;-59
2021/12/16 08:31:16;;;;;;;73.20;14.10;;;6.10;99.90;;;;;;5001627;28;20044;-58
2021/12/16 08:33:42;;;;;;;91.00;16.38;;;6.10;99.90;;;;;;5000138;28;20499;-59
2021/12/16 08:36:09;;;;;;;78.80;14.15;;;6.10;99.90;;;;;;5028527;28;20427;-59
2021/12/16 08:38:37;;;;;;;43.22;11.20;;;6.10;99.90;;;;;;5014011;28;20039;-60
2021/12/16 08:41:18;;;;;;;109.43;18.33;;;6.10;99.90;;;;;;5012677;28;20052;-59
2021/12/16 08:43:44;;;;;;;54.63;12.20;;;6.10;99.90;;;;;;4985592;28;20040;-59
2021/12/16 08:46:14;;;;;;;38.25;11.93;;;6.10;99.90;;;;;;4975548;28;20241;-58
2021/12/16 08:48:42;;;;;;;146.30;20.67;;;6.10;99.90;;;;;;5013094;28;20134;-57
2021/12/16 08:51:08;;;;;;;33.78;11.10;;;6.10;99.90;;;;;;5014156;28;20507;-59
2021/12/16 08:53:35;;;;;;;61.78;11.90;;;6.10;99.90;;;;;;5012850;28;20045;-59
2021/12/16 08:56:04;;;;;;;53.13;14.27;;;6.10;99.90;;;;;;5029928;28;20579;-58
2021/12/16 08:58:29;;;;;;;120.63;18.00;;;6.10;99.90;;;;;;5021756;28;20112;-59
2021/12/16 09:01:04;;;;;;;73.57;16.42;;;6.10;99.90;;;;;;4990140;28;20041;-58
2021/12/16 09:03:30;;;;;;;82.15;14.88;;;6.20;99.90;;;;;;5014247;28;20094;-59
2021/12/16 09:05:57;;;;;;;67.55;14.15;;;6.10;99.90;;;;;;5025832;28;20041;-59
2021/12/16 09:08:24;;;;;;;131.43;17.63;;;6.10;99.90;;;;;;5006033;28;20037;-58
2021/12/16 09:10:50;;;;;;;77.22;14.93;;;6.10;99.90;;;;;;5028332;28;20045;-57
2021/12/16 09:13:17;;;;;;;47.80;12.07;;;6.10;99.90;;;;;;5017586;28;20502;-60
2021/12/16 09:15:56;;;;;;;77.82;13.55;;;6.10;99.90;;;;;;5027954;28;20432;-60
2021/12/16 09:18:30;;;;;;;96.47;15.00;;;6.10;99.90;;;;;;5015390;28;20053;-58
2021/12/16 09:20:58;;;;;;;88.55;15.65;;;6.20;99.90;;;;;;5020521;28;20039;-59
2021/12/16 09:23:25;;;;;;;210.57;26.98;;;6.10;99.90;;;;;;5004763;28;20481;-57
2021/12/16 09:25:51;;;;;;;115.68;15.48;;;6.10;99.90;;;;;;5008874;28;20048;-59
2021/12/16 09:28:20;;;;;;;118.18;16.42;;;6.20;99.90;;;;;;5028847;28;20512;-60
2021/12/16 09:30:46;;;;;;;137.68;16.63;;;6.20;99.90;;;;;;5016506;28;20040;-57
2021/12/16 09:33:15;;;;;;;115.30;15.23;;;6.30;99.90;;;;;;5021461;28;20048;-60
2021/12/16 09:35:49;;;;;;;100.15;14.45;;;6.30;99.90;;;;;;5010441;28;20232;-60
2021/12/16 09:38:16;;;;;;;96.90;15.73;;;6.30;99.90;;;;;;5014415;28;20121;-59
2021/12/16 09:40:49;;;;;;;65.15;13.07;;;6.40;99.90;;;;;;5007283;28;20691;-59
2021/12/16 09:43:17;;;;;;;97.88;16.45;;;6.40;99.90;;;;;;5023549;28;20090;-58
2021/12/16 09:45:43;;;;;;;30.40;13.43;;;6.40;99.90;;;;;;5032294;28;20123;-59
2021/12/16 09:48:09;;;;;;;75.72;16.55;;;6.50;99.90;;;;;;5013500;28;20768;-59
2021/12/16 09:50:35;;;;;;;87.47;16.45;;;6.50;99.90;;;;;;5033591;28;20294;-57
2021/12/16 09:53:02;;;;;;;49.28;13.98;;;6.60;99.90;;;;;;5036156;28;20080;-59
2021/12/16 09:55:29;;;;;;;64.80;15.85;;;6.60;99.90;;;;;;5008739;28;20217;-60
2021/12/16 09:57:55;;;;;;;94.35;20.00;;;6.70;99.90;;;;;;5015967;28;20128;-59
2021/12/16 10:00:25;;;;;;;93.97;15.95;;;6.80;99.90;;;;;;5018568;28;20358;-58
2021/12/16 10:02:53;;;;;;;103.85;18.20;;;6.80;99.90;;;;;;5021526;28;20036;-59
2021/12/16 10:05:19;;;;;;;174.55;24.65;;;6.90;99.90;;;;;;5027446;28;20040;-60
2021/12/16 10:07:45;;;;;;;103.22;20.02;;;6.90;99.90;;;;;;5036371;28;20366;-58
2021/12/16 10:10:15;;;;;;;71.35;16.75;;;6.90;99.90;;;;;;5013579;28;20084;-59
2021/12/16 10:12:44;;;;;;;33.80;13.02;;;7.00;99.90;;;;;;5015005;28;20041;-60
2021/12/16 10:18:10;;;;;;;128.88;20.27;;;7.10;99.90;;;;;;4997592;28;20041;-58
2021/12/16 10:20:38;;;;;;;100.25;18.38;;;7.20;99.90;;;;;;5034166;28;20037;-58
2021/12/16 10:23:14;;;;;;;73.25;16.52;;;7.20;99.90;;;;;;5024311;28;20072;-56
2021/12/16 10:25:44;;;;;;;94.57;16.60;;;7.20;99.90;;;;;;5023667;28;20042;-58
2021/12/16 10:28:23;;;;;;;156.27;24.00;;;7.20;99.90;;;;;;5015282;28;20055;-59
2021/12/16 10:31:07;;;;;;;71.05;18.80;;;7.30;99.90;;;;;;5005641;28;20067;-58
2021/12/16 10:33:42;;;;;;;137.30;20.63;;;7.30;99.90;;;;;;5029155;28;20396;-57
2021/12/16 10:36:15;;;;;;;105.75;19.65;;;7.30;99.90;;;;;;5015671;28;20049;-58
2021/12/16 10:38:47;;;;;;;47.58;17.58;;;7.30;99.90;;;;;;5030755;28;20123;-58
2021/12/16 10:41:29;;;;;;;79.75;16.25;;;7.30;99.90;;;;;;5026724;28;20051;-58
2021/12/16 10:43:57;;;;;;;31.35;13.25;;;7.30;99.90;;;;;;5014832;28;20087;-58
2021/12/16 10:46:28;;;;;;;53.65;13.40;;;7.30;99.90;;;;;;5017722;28;20115;-58
2021/12/16 10:49:07;;;;;;;32.78;13.43;;;7.40;99.90;;;;;;5024765;28;20136;-59
2021/12/16 10:51:51;;;;;;;68.10;18.40;;;7.40;99.90;;;;;;5016591;28;20051;-58
2021/12/16 10:54:22;;;;;;;25.20;13.60;;;7.40;99.90;;;;;;5014806;28;20039;-58
2021/12/16 10:56:53;;;;;;;42.30;16.42;;;7.50;99.90;;;;;;5023771;28;20045;-59
2021/12/16 10:59:26;;;;;;;54.78;16.05;;;7.50;99.90;;;;;;5021584;28;20072;-57
2021/12/16 11:02:07;;;;;;;29.40;13.48;;;7.50;99.90;;;;;;5030684;28;20631;-58
2021/12/16 11:05:01;;;;;;;39.00;13.98;;;7.60;99.90;;;;;;5006148;28;20088;-57
2021/12/16 11:07:27;;;;;;;;;;;7.60;99.90;;;;;;5020187;28;20136;-59
2021/12/16 11:10:14;;;;;;;83.57;18.60;;;7.60;99.90;;;;;;5023372;28;20148;-57
2021/12/16 11:12:49;;;;;;;30.10;14.13;;;7.70;99.90;;;;;;5005538;28;20041;-59
2021/12/16 11:15:35;;;;;;;87.70;20.83;;;7.70;99.90;;;;;;5021388;28;20083;-59
2021/12/16 11:18:16;;;;;;;30.50;15.68;;;7.70;99.90;;;;;;5025772;28;20045;-59
2021/12/16 11:20:47;;;;;;;52.47;16.35;;;7.80;99.90;;;;;;5013306;28;20037;-57
2021/12/16 11:23:20;;;;;;;24.90;13.63;;;7.80;99.90;;;;;;5015198;28;20102;-58
2021/12/16 11:25:56;;;;;;;35.83;14.35;;;7.80;99.90;;;;;;5023039;28;20452;-58
2021/12/16 11:28:31;;;;;;;47.95;16.45;;;7.90;99.90;;;;;;5024500;28;20044;-59
2021/12/16 11:31:07;;;;;;;25.90;14.23;;;7.90;99.90;;;;;;5020793;28;20037;-58
2021/12/16 11:33:43;;;;;;;33.13;16.05;;;8.00;99.90;;;;;;5016161;28;20041;-58
2021/12/16 11:36:20;;;;;;;45.45;18.13;;;8.00;99.90;;;;;;5011741;28;20379;-59
2021/12/16 11:39:03;;;;;;;41.25;17.65;;;8.10;99.90;;;;;;5032966;28;20056;-59
2021/12/16 11:41:40;;;;;;;80.18;22.50;;;8.10;99.90;;;;;;5019689;28;20047;-58
2021/12/16 11:44:18;;;;;;;57.22;17.85;;;8.20;99.90;;;;;;5017532;28;20497;-58
2021/12/16 11:46:55;;;;;;;41.58;17.38;;;8.20;99.90;;;;;;5017068;28;20048;-59
2021/12/16 11:49:31;;;;;;;48.88;16.80;;;8.30;99.90;;;;;;5022342;28;20131;-57
2021/12/16 11:52:23;;;;;;;28.85;14.60;;;8.30;99.90;;;;;;5011408;28;20500;-58
2021/12/16 11:54:55;;;;;;;39.70;17.83;;;8.40;99.90;;;;;;5006562;28;20041;-59
2021/12/16 11:57:41;;;;;;;32.65;17.15;;;8.50;99.90;;;;;;5013334;28;20072;-58
2021/12/16 12:00:09;;;;;;;37.40;16.95;;;8.50;99.90;;;;;;5013703;28;20033;-56
2021/12/16 12:02:44;;;;;;;35.63;16.65;;;8.50;99.90;;;;;;5011035;28;20439;-60
2021/12/16 12:05:28;;;;;;;35.22;16.40;;;8.60;99.90;;;;;;5010768;28;20038;-58
2021/12/16 12:08:04;;;;;;;34.83;16.90;;;8.60;99.90;;;;;;5001737;28;20053;-56
2021/12/16 12:10:45;;;;;;;53.58;18.02;;;8.60;99.90;;;;;;5011278;28;20403;-58
2021/12/16 12:13:16;;;;;;;57.13;17.30;;;8.70;99.90;;;;;;5010451;28;20052;-56
2021/12/16 12:15:52;;;;;;;40.45;16.75;;;8.70;99.90;;;;;;5014492;28;20044;-58
2021/12/16 12:18:36;;;;;;;60.92;17.75;;;8.70;99.90;;;;;;5012464;28;20476;-59
2021/12/16 12:21:25;;;;;;;65.05;18.65;;;8.70;99.90;;;;;;5017390;28;20400;-56
2021/12/16 12:23:58;;;;;;;44.03;16.83;;;8.70;99.90;;;;;;4995070;28;20036;-56
2021/12/16 12:26:26;;;;;;;97.50;21.35;;;8.80;99.90;;;;;;5010120;28;20383;-59
2021/12/16 12:28:57;;;;;;;79.25;22.35;;;8.80;99.90;;;;;;5009208;28;20044;-57
2021/12/16 12:31:27;;;;;;;87.07;22.80;;;8.80;99.90;;;;;;4993547;28;20049;-58
2021/12/16 12:33:53;;;;;;;70.40;20.67;;;8.90;99.90;;;;;;5013365;28;20037;-58
2021/12/16 12:36:22;;;;;;;75.95;18.02;;;8.90;99.90;;;;;;5026353;28;20429;-61
2021/12/16 12:38:48;;;;;;;44.40;18.15;;;8.90;99.90;;;;;;5004616;28;20049;-60
2021/12/16 12:41:15;;;;;;;68.05;18.10;;;8.90;99.90;;;;;;5025928;28;20068;-57
2021/12/16 12:43:40;;;;;;;53.83;18.40;;;8.90;99.90;;;;;;5013810;28;20045;-57
2021/12/16 12:46:07;;;;;;;68.57;18.02;;;8.90;99.90;;;;;;5025604;28;20036;-56
2021/12/16 12:48:39;;;;;;;125.90;21.98;;;8.90;99.90;;;;;;4992993;28;20120;-57
2021/12/16 12:51:08;;;;;;;46.17;16.95;;;9.00;99.90;;;;;;5015972;28;20039;-61
2021/12/16 12:53:46;;;;;;;71.50;18.60;;;9.00;99.90;;;;;;5034784;28;20033;-56
2021/12/16 12:56:16;;;;;;;111.85;23.13;;;9.00;99.90;;;;;;5027790;28;20078;-58
2021/12/16 12:59:03;;;;;;;63.17;19.52;;;9.00;99.90;;;;;;5043748;28;20029;-55
2021/12/16 13:01:46;;;;;;;73.30;22.00;;;9.00;99.90;;;;;;4992988;28;20774;-58
2021/12/16 13:04:22;;;;;;;66.10;20.77;;;9.00;99.90;;;;;;5040315;22;20038;-63
2021/12/16 13:07:04;;;;;;;89.78;23.42;;;9.00;99.90;;;;;;5020028;28;20045;-65
2021/12/16 13:09:29;;;;;;;56.47;20.98;;;9.00;99.90;;;;;;5014458;28;20660;-66
2021/12/16 13:11:56;;;;;;;65.97;21.90;;;9.00;99.90;;;;;;5005918;28;20046;-64
2021/12/16 13:14:29;;;;;;;60.75;21.27;;;9.00;99.90;;;;;;4994624;28;20460;-65
2021/12/16 13:26:24;;;;;;;61.65;21.60;;;9.00;99.90;;;;;;4989786;28;20493;-66
2021/12/16 13:31:58;;;;;;;49.55;21.42;;;8.90;99.90;;;;;;4988653;28;20048;-65
2021/12/16 13:34:37;;;;;;;55.85;22.33;;;9.00;99.90;;;;;;4981492;28;20116;-65
2021/12/16 13:37:20;;;;;;;31.15;16.80;;;9.00;99.90;;;;;;5002006;28;20121;-63
2021/12/16 13:39:48;;;;;;;48.70;21.23;;;9.00;99.90;;;;;;5000408;28;20073;-65
2021/12/16 13:42:15;;;;;;;92.95;26.00;;;9.00;99.90;;;;;;4989590;28;20415;-65
2021/12/16 13:45:02;;;;;;;58.55;21.58;;;9.00;99.90;;;;;;4994047;28;20042;-65
2021/12/16 14:07:40;;;;;;;70.80;25.02;;;9.10;99.90;;;;;;4986415;28;20088;-66
2021/12/16 14:10:18;;;;;;;59.08;23.33;;;9.10;99.90;;;;;;4991107;28;20701;-66
2021/12/16 14:16:13;;;;;;;87.85;30.80;;;9.20;99.90;;;;;;4997693;28;20093;-66
2021/12/16 14:25:18;;;;;;;49.45;21.48;;;9.20;99.90;;;;;;5009131;28;20062;-65
2021/12/16 14:49:51;;;;;;;79.32;28.58;;;9.10;99.90;;;;;;4994997;28;20077;-66
2021/12/16 14:52:23;;;;;;;81.65;29.17;;;9.30;99.90;;;;;;4982411;28;20090;-66
2021/12/16 14:54:56;;;;;;;73.53;26.58;;;9.20;99.90;;;;;;4992443;28;20046;-66
2021/12/16 14:57:36;;;;;;;66.45;24.20;;;9.20;99.90;;;;;;4989802;28;20042;-66
2021/12/16 15:00:29;;;;;;;72.47;26.80;;;9.30;99.90;;;;;;4999385;28;20216;-65
2021/12/16 15:03:11;;;;;;;74.72;26.63;;;9.30;99.90;;;;;;4975301;28;20088;-66
2021/12/16 15:05:51;;;;;;;82.10;26.75;;;9.30;99.90;;;;;;5019235;28;20086;-65
2021/12/16 15:08:32;;;;;;;104.43;32.33;;;9.30;99.90;;;;;;4991889;28;20547;-65
2021/12/16 15:11:01;;;;;;;96.50;28.98;;;9.30;99.90;;;;;;4994609;28;20034;-64
2021/12/16 15:13:37;;;;;;;92.78;26.90;;;9.30;99.90;;;;;;4991670;28;20064;-65
2021/12/16 15:33:53;;;;;;;;;;;9.20;99.90;;;;;;4987226;28;20452;-65
2021/12/16 15:42:43;;;;;;;77.70;26.52;;;9.20;99.90;;;;;;4989370;28;20531;-63
2021/12/16 15:43:40;;;;;;;67.88;25.70;;;9.20;99.90;;;;;;4982093;28;20076;-63
2021/12/16 15:46:06;;;;;;;93.07;29.13;;;9.20;99.90;;;;;;4995573;28;20477;-63
2021/12/16 15:48:32;;;;;;;54.28;22.50;;;9.20;99.90;;;;;;5002673;28;20125;-62
2021/12/16 15:51:08;;;;;;;92.78;30.02;;;9.20;99.90;;;;;;4991715;28;20153;-63
2021/12/16 15:53:41;;;;;;;88.40;30.05;;;9.30;99.90;;;;;;5002094;28;20532;-62
2021/12/16 15:56:13;;;;;;;85.25;28.95;;;9.30;99.90;;;;;;4993655;28;20046;-63
2021/12/16 15:58:49;;;;;;;78.13;27.93;;;9.30;99.90;;;;;;4991225;28;20199;-64
2021/12/16 16:01:20;;;;;;;76.18;28.40;;;9.30;99.90;;;;;;4988257;28;20037;-63
2021/12/16 16:03:46;;;;;;;77.68;28.88;;;9.30;99.90;;;;;;4995035;28;20041;-63
2021/12/16 16:06:14;;;;;;;72.97;27.08;;;9.30;99.90;;;;;;5000810;28;20168;-63
2021/12/16 16:08:46;;;;;;;98.65;33.13;;;9.30;99.90;;;;;;4990477;28;20547;-63
2021/12/16 16:11:16;;;;;;;81.68;31.02;;;9.30;99.90;;;;;;4975411;28;20045;-63
2021/12/16 16:13:51;;;;;;;87.38;30.77;;;9.30;99.90;;;;;;4973876;28;20033;-63
2021/12/16 16:16:21;;;;;;;59.95;24.00;;;9.30;99.90;;;;;;4991201;28;20080;-63
2021/12/16 16:18:55;;;;;;;86.93;30.52;;;9.30;99.90;;;;;;4993380;28;20034;-62
2021/12/16 16:21:34;;;;;;;88.07;31.77;;;9.30;99.90;;;;;;4971275;28;20050;-62
2021/12/16 16:24:08;;;;;;;124.63;38.85;;;9.30;99.90;;;;;;4990092;28;20126;-62
2021/12/16 16:26:34;;;;;;;161.93;83.88;;;9.30;99.90;;;;;;4982793;28;20121;-63
2021/12/16 16:29:06;;;;;;;95.47;51.25;;;9.30;99.90;;;;;;4990974;28;20074;-63
2021/12/16 16:31:34;;;;;;;117.85;47.33;;;9.30;99.90;;;;;;5001757;28;20042;-62
2021/12/16 16:34:02;;;;;;;140.57;57.35;;;9.30;99.90;;;;;;4985118;28;20263;-62
2021/12/16 16:36:29;;;;;;;148.65;53.58;;;9.30;99.90;;;;;;4995433;28;20108;-62
2021/12/16 16:39:04;;;;;;;152.95;63.35;;;9.30;99.90;;;;;;4987900;28;20185;-62
2021/12/16 16:41:32;;;;;;;179.23;67.60;;;9.30;99.90;;;;;;4986513;28;20338;-62
2021/12/16 16:44:02;;;;;;;227.05;77.40;;;9.30;99.90;;;;;;4992568;28;20053;-62
2021/12/16 16:46:41;;;;;;;221.05;54.50;;;9.30;99.90;;;;;;4998464;28;20447;-62
2021/12/16 16:49:14;;;;;;;146.85;38.38;;;9.30;99.90;;;;;;4995198;28;20145;-62
2021/12/16 16:51:47;;;;;;;116.67;37.03;;;9.30;99.90;;;;;;4994226;28;20050;-62
2021/12/16 16:54:19;;;;;;;121.55;37.97;;;9.30;99.90;;;;;;4998962;28;20430;-62
2021/12/16 16:57:09;;;;;;;159.50;38.17;;;9.30;99.90;;;;;;4995599;28;20041;-63
2021/12/16 16:59:46;;;;;;;179.25;43.15;;;9.30;99.90;;;;;;5017850;28;20569;-63